Time;durP1;ratioP1;P1;durP2;ratioP2;P2;SDS_P1;SDS_P2;PMS_P1;PMS_P2;Temp;Humidity;BMP_temperature;BMP_pressure;BME280_temperature;BME280_humidity;BME280_pressure;Samples;Min_cycle;Max_cycle;Signal;HPM_P1;HPM_P2
2022/11/25 00:02:43;;;;;;;9.37;6.10;;;;;;;2.17;100.00;96591.75;10412822;28;20352;-76
2022/11/25 00:07:43;;;;;;;12.97;6.63;;;;;;;2.09;100.00;96588.91;10412459;28;20672;-76
2022/11/25 00:12:44;;;;;;;15.93;6.37;;;;;;;2.25;100.00;96584.31;10412081;28;20184;-76
2022/11/25 00:17:44;;;;;;;14.00;5.63;;;;;;;2.25;100.00;96586.06;10411517;28;20196;-76
2022/11/25 00:22:45;;;;;;;12.03;6.40;;;;;;;2.22;100.00;96588.84;10411358;28;20224;-77
2022/11/25 00:27:45;;;;;;;11.63;6.10;;;;;;;2.24;100.00;96581.84;10412015;28;20636;-76
2022/11/25 00:32:45;;;;;;;10.07;5.87;;;;;;;2.19;100.00;96589.06;10410912;28;20232;-77
2022/11/25 00:37:46;;;;;;;20.80;6.17;;;;;;;2.16;100.00;96578.94;10411378;28;20279;-77
2022/11/25 00:48:05;;;;;;;9.83;5.73;;;;;;;2.17;100.00;96575.44;10411214;28;20199;-76
2022/11/25 00:53:05;;;;;;;12.97;6.63;;;;;;;2.23;100.00;96581.00;10410389;28;20181;-76
2022/11/25 00:58:06;;;;;;;10.93;6.00;;;;;;;2.25;100.00;96588.63;10408960;28;20204;-76
2022/11/25 01:03:06;;;;;;;12.40;6.83;;;;;;;2.22;100.00;96589.69;10409703;28;20689;-76
2022/11/25 01:08:07;;;;;;;12.40;6.10;;;;;;;2.22;100.00;96594.88;10410454;28;20184;-76
2022/11/25 01:13:07;;;;;;;9.37;4.50;;;;;;;2.19;100.00;96592.50;10409420;28;20191;-76
2022/11/25 01:18:09;;;;;;;11.03;5.43;;;;;;;2.06;100.00;96586.53;10408090;28;20291;-76
2022/11/25 01:23:09;;;;;;;11.60;4.67;;;;;;;2.03;100.00;96594.50;10408189;28;20221;-76
2022/11/25 01:28:10;;;;;;;9.90;4.63;;;;;;;1.93;100.00;96587.38;10409458;28;20196;-76
2022/11/25 01:33:10;;;;;;;6.67;4.90;;;;;;;1.73;100.00;96591.34;10407841;28;20234;-76
2022/11/25 01:38:10;;;;;;;8.73;3.87;;;;;;;1.66;100.00;96592.66;10407619;28;20254;-76
2022/11/25 01:43:14;;;;;;;12.37;4.67;;;;;;;1.55;100.00;96590.00;10406972;28;20219;-76
2022/11/25 01:48:21;;;;;;;7.87;4.70;;;;;;;1.56;100.00;96589.91;10407403;28;20185;-76
2022/11/25 01:53:22;;;;;;;7.37;4.60;;;;;;;1.43;100.00;96597.63;10387016;28;20656;-76
2022/11/25 01:58:29;;;;;;;11.67;4.73;;;;;;;1.28;100.00;96592.66;10389178;28;20203;-75
2022/11/25 02:03:41;;;;;;;10.17;5.50;;;;;;;1.23;100.00;96598.94;10388484;28;20225;-77
2022/11/25 02:08:42;;;;;;;8.63;4.40;;;;;;;1.23;100.00;96605.88;10406121;28;20565;-77
2022/11/25 02:13:45;;;;;;;10.23;5.00;;;;;;;1.08;100.00;96604.31;10388393;28;20314;-77
2022/11/25 02:18:45;;;;;;;6.57;4.27;;;;;;;1.08;100.00;96606.88;10397158;28;20191;-76
2022/11/25 02:23:54;;;;;;;9.53;4.00;;;;;;;0.96;100.00;96598.19;10396088;28;20230;-76
2022/11/25 02:28:55;;;;;;;6.30;4.60;;;;;;;0.91;100.00;96593.31;10396166;28;20188;-77
2022/11/25 02:33:56;;;;;;;8.67;4.90;;;;;;;0.83;100.00;96593.00;10372051;28;1221842;-77
2022/11/25 02:38:59;;;;;;;6.97;4.17;;;;;;;0.75;100.00;96593.50;10416779;28;20283;-77
2022/11/25 02:44:03;;;;;;;14.83;5.70;;;;;;;0.65;100.00;96593.25;10414597;28;20227;-76
2022/11/25 02:49:03;;;;;;;9.33;4.87;;;;;;;0.74;100.00;96602.16;10397196;28;20195;-77
2022/11/25 02:54:04;;;;;;;9.57;4.57;;;;;;;0.78;100.00;96597.63;10397394;28;20180;-77
2022/11/25 02:59:05;;;;;;;9.57;4.63;;;;;;;0.68;100.00;96598.22;10398290;28;20726;-77
2022/11/25 03:04:06;;;;;;;7.03;3.37;;;;;;;0.69;100.00;96591.31;10397863;28;20215;-77
2022/11/25 03:09:06;;;;;;;11.17;4.43;;;;;;;0.62;100.00;96590.88;10398213;28;20207;-77
2022/11/25 03:14:11;;;;;;;12.27;3.63;;;;;;;0.47;100.00;96591.84;10414929;28;20235;-78
2022/11/25 03:19:12;;;;;;;10.90;6.17;;;;;;;0.41;100.00;96605.94;10415203;28;20180;-77
2022/11/25 03:24:12;;;;;;;9.93;3.90;;;;;;;0.41;100.00;96613.66;10414189;28;20262;-76
2022/11/25 03:29:12;;;;;;;6.47;3.83;;;;;;;0.39;100.00;96612.94;10414292;28;20598;-77
2022/11/25 03:34:13;;;;;;;12.70;7.10;;;;;;;0.32;100.00;96606.50;10396763;28;20240;-77
2022/11/25 03:39:15;;;;;;;4.87;3.60;;;;;;;0.38;100.00;96615.63;10396479;28;20204;-78
2022/11/25 03:44:15;;;;;;;6.07;3.87;;;;;;;0.30;100.00;96605.78;10396387;28;20298;-77
2022/11/25 03:49:16;;;;;;;8.67;3.87;;;;;;;0.24;100.00;96607.00;10379945;28;20193;-76
2022/11/25 03:54:17;;;;;;;4.70;3.40;;;;;;;0.26;100.00;96610.31;10395480;28;20550;-77
2022/11/25 03:59:41;;;;;;;7.33;3.43;;;;;;;0.22;100.00;96611.41;10402871;28;20226;-77
2022/11/25 04:04:42;;;;;;;10.40;4.20;;;;;;;0.16;100.00;96610.03;10386679;28;20251;-77
2022/11/25 04:09:42;;;;;;;6.33;4.00;;;;;;;0.17;100.00;96614.28;10410063;28;20323;-77
2022/11/25 04:14:44;;;;;;;8.13;3.10;;;;;;;0.16;100.00;96616.94;10408780;28;20637;-77
2022/11/25 04:19:44;;;;;;;7.57;3.40;;;;;;;0.07;100.00;96609.78;10391892;28;20188;-77
2022/11/25 04:24:46;;;;;;;4.67;3.20;;;;;;;0.10;100.00;96617.31;10407354;28;20223;-76
2022/11/25 04:29:50;;;;;;;6.60;3.77;;;;;;;-0.02;100.00;96616.31;10407185;28;20648;-77
2022/11/25 04:34:53;;;;;;;5.80;3.80;;;;;;;-0.04;100.00;96618.16;10406467;28;20192;-76
2022/11/25 04:39:54;;;;;;;4.17;2.63;;;;;;;-0.02;100.00;96624.03;10406114;28;20228;-77
2022/11/25 04:44:55;;;;;;;7.60;3.40;;;;;;;-0.10;100.00;96626.28;10408011;28;20311;-78
2022/11/25 04:49:56;;;;;;;10.70;3.37;;;;;;;-0.15;100.00;96621.41;10406487;28;20189;-76
2022/11/25 04:54:57;;;;;;;5.33;3.07;;;;;;;-0.08;100.00;96627.81;10406239;28;20191;-77
2022/11/25 04:59:57;;;;;;;5.23;3.37;;;;;;;-0.12;100.00;96622.94;10406727;28;20192;-76
2022/11/25 05:04:58;;;;;;;5.57;3.10;;;;;;;-0.20;100.00;96619.09;10409017;28;20215;-77
2022/11/25 05:09:58;;;;;;;10.27;3.30;;;;;;;-0.29;100.00;96611.09;10409970;28;20668;-77
2022/11/25 05:15:13;;;;;;;7.43;2.73;;;;;;;-0.29;100.00;96604.22;10409264;28;20272;-76
2022/11/25 05:20:15;;;;;;;10.30;3.33;;;;;;;-0.34;100.00;96607.97;10409069;28;20192;-77
2022/11/25 05:25:19;;;;;;;3.90;2.23;;;;;;;-0.37;100.00;96601.25;10410915;28;20212;-77
2022/11/25 05:30:33;;;;;;;7.13;3.40;;;;;;;-0.37;100.00;96599.53;10408832;28;20274;-77
2022/11/25 05:35:34;;;;;;;5.30;2.87;;;;;;;-0.31;100.00;96605.22;10408850;28;20258;-77
2022/11/25 05:40:34;;;;;;;9.73;3.40;;;;;;;-0.42;100.00;96603.28;10409974;28;20850;-77
2022/11/25 05:45:40;;;;;;;9.80;3.27;;;;;;;-0.38;100.00;96605.56;10408712;28;20258;-76
2022/11/25 05:50:42;;;;;;;6.30;2.90;;;;;;;-0.36;100.00;96603.72;10408232;28;20192;-77
2022/11/25 05:55:59;;;;;;;7.10;2.97;;;;;;;-0.35;100.00;96609.72;10408649;28;20718;-77
2022/11/25 06:01:25;;;;;;;10.40;3.07;;;;;;;-0.41;100.00;96620.38;10409346;28;20189;-77
2022/11/25 06:06:26;;;;;;;5.03;2.77;;;;;;;-0.34;100.00;96615.69;10407964;28;20185;-77
2022/11/25 06:11:27;;;;;;;8.53;2.90;;;;;;;-0.38;100.00;96625.34;10408295;28;20188;-77
2022/11/25 06:16:28;;;;;;;6.70;2.30;;;;;;;-0.46;100.00;96615.50;10409416;28;20564;-77
2022/11/25 06:21:40;;;;;;;9.30;3.40;;;;;;;-0.44;100.00;96615.41;10393101;28;20212;-77
2022/11/25 06:26:41;;;;;;;14.47;5.53;;;;;;;-0.48;100.00;96626.81;10408015;28;20193;-77
2022/11/25 06:31:41;;;;;;;52.73;15.83;;;;;;;-0.50;100.00;96629.47;10407095;28;20225;-77
2022/11/25 06:37:02;;;;;;;17.20;6.77;;;;;;;-0.41;100.00;96643.53;10407723;28;20212;-77
2022/11/25 06:42:03;;;;;;;10.27;3.80;;;;;;;-0.39;100.00;96649.41;10408835;28;20283;-76
2022/11/25 06:47:03;;;;;;;10.13;5.13;;;;;;;-0.47;100.00;96641.34;10408570;28;20223;-77
2022/11/25 06:52:04;;;;;;;6.27;3.57;;;;;;;-0.44;100.00;96636.81;10408701;28;20271;-77
2022/11/25 06:57:04;;;;;;;23.97;10.27;;;;;;;-0.40;100.00;96640.88;10412358;28;20197;-75
2022/11/25 07:02:05;;;;;;;16.50;10.03;;;;;;;-0.46;100.00;96654.09;10415968;28;20221;-77
2022/11/25 07:07:05;;;;;;;18.63;9.57;;;;;;;-0.47;100.00;96657.59;10416148;28;20288;-77
2022/11/25 07:12:06;;;;;;;11.57;5.57;;;;;;;-0.46;100.00;96663.56;10415407;28;20192;-77
2022/11/25 07:17:06;;;;;;;6.90;2.83;;;;;;;-0.35;100.00;96663.78;10415410;28;20283;-75
2022/11/25 07:22:07;;;;;;;7.13;2.70;;;;;;;-0.28;100.00;96671.94;10414449;28;20221;-77
2022/11/25 07:27:07;;;;;;;8.30;3.23;;;;;;;-0.31;100.00;96677.28;10413614;28;20188;-76
2022/11/25 07:32:08;;;;;;;9.50;2.37;;;;;;;-0.29;100.00;96681.44;10408439;28;20224;-77
2022/11/25 07:37:08;;;;;;;13.40;2.83;;;;;;;-0.08;100.00;96679.31;10414805;28;20313;-76
2022/11/25 07:42:08;;;;;;;5.47;2.20;;;;;;;0.33;100.00;96673.41;10411579;28;20212;-76
2022/11/25 07:47:09;;;;;;;6.47;1.93;;;;;;;0.71;100.00;96677.13;10409628;28;20221;-79
2022/11/25 07:52:09;;;;;;;10.27;2.57;;;;;;;0.95;100.00;96658.41;10410903;28;20901;-80
2022/11/25 07:57:10;;;;;;;7.47;2.80;;;;;;;0.96;100.00;96653.16;10409187;28;20549;-81
2022/11/25 08:02:17;;;;;;;5.83;3.00;;;;;;;1.27;100.00;96640.03;10408631;28;20215;-83
2022/11/25 08:07:45;;;;;;;7.43;3.03;;;;;;;1.55;100.00;96626.16;10411970;28;20599;-82
2022/11/25 08:12:45;;;;;;;14.47;4.23;;;;;;;1.56;100.00;96622.63;10377605;28;20192;-82
2022/11/25 08:17:51;;;;;;;5.77;2.17;;;;;;;1.94;100.00;96632.09;10402752;28;20235;-82
2022/11/25 08:22:52;;;;;;;4.70;2.07;;;;;;;2.36;100.00;96621.47;10411131;28;20220;-80
2022/11/25 08:27:53;;;;;;;6.47;2.00;;;;;;;2.47;100.00;96614.63;10386036;28;20228;-83
2022/11/25 08:32:54;;;;;;;9.70;2.23;;;;;;;2.80;100.00;96620.94;10390156;28;20555;-83
2022/11/25 08:38:00;;;;;;;5.20;2.43;;;;;;;3.07;100.00;96617.25;10388190;28;20228;-82
2022/11/25 08:43:02;;;;;;;7.57;2.17;;;;;;;3.35;100.00;96623.00;10389498;28;20208;-82
2022/11/25 08:48:05;;;;;;;4.37;1.83;;;;;;;3.79;100.00;96625.78;10413042;28;20192;-83
2022/11/25 08:53:06;;;;;;;5.33;2.10;;;;;;;3.73;100.00;96619.31;10433771;28;20184;-82
2022/11/25 08:58:10;;;;;;;4.90;2.47;;;;;;;3.88;100.00;96614.72;10451305;28;20588;-83
2022/11/25 09:03:14;;;;;;;17.57;8.67;;;;;;;3.96;100.00;96625.31;10432382;28;20241;-83
2022/11/25 09:08:14;;;;;;;8.50;3.93;;;;;;;3.97;100.00;96621.78;10408903;28;20261;-83
2022/11/25 09:13:16;;;;;;;9.57;2.67;;;;;;;4.33;100.00;96621.66;10429386;28;20184;-81
2022/11/25 09:18:19;;;;;;;5.83;2.80;;;;;;;4.88;100.00;96606.88;10462962;28;20200;-81
2022/11/25 09:23:22;;;;;;;8.73;2.03;;;;;;;5.26;100.00;96605.53;10426791;28;20216;-81
2022/11/25 09:28:24;;;;;;;5.07;2.43;;;;;;;5.28;100.00;96606.25;10410184;28;20219;-80
2022/11/25 09:33:24;;;;;;;7.97;2.53;;;;;;;5.39;100.00;96610.56;10406847;28;20232;-80
2022/11/25 09:38:25;;;;;;;8.87;2.70;;;;;;;5.72;100.00;96601.72;10405932;28;20216;-80
2022/11/25 09:49:25;;;;;;;10.53;3.33;;;;;;;6.93;100.00;96594.00;10407743;28;20283;-80
2022/11/25 09:54:34;;;;;;;10.20;3.60;;;;;;;7.48;100.00;96602.06;10407439;28;20185;-81
2022/11/25 09:59:44;;;;;;;8.90;3.77;;;;;;;6.83;100.00;96604.44;10406328;28;20513;-78
2022/11/25 10:04:52;;;;;;;8.73;2.80;;;;;;;7.78;100.00;96597.63;10406336;28;20220;-79
2022/11/25 10:15:48;;;;;;;9.30;3.50;;;;;;;9.70;99.26;96558.38;10408588;28;20201;-79
2022/11/25 10:20:50;;;;;;;12.43;6.00;;;;;;;9.31;94.38;96550.94;10388922;28;20665;-79
2022/11/25 10:26:01;;;;;;;10.50;4.23;;;;;;;9.10;91.28;96533.81;10395448;28;20961;-78
2022/11/25 10:31:23;;;;;;;5.60;2.40;;;;;;;10.41;83.91;96481.28;10395355;28;20307;-79
2022/11/25 10:36:32;;;;;;;5.32;1.48;;;;;;;9.98;78.97;96451.72;10406055;28;20666;-80
2022/11/25 10:41:37;;;;;;;4.90;1.70;;;;;;;10.92;75.06;96420.06;10408677;28;20188;-79
2022/11/25 10:46:43;;;;;;;9.27;1.88;;;;;;;10.65;74.54;96429.94;10378618;28;20731;-79
2022/11/25 10:51:48;;;;;;;5.57;1.80;;;;;;;10.11;72.37;96393.69;10414012;28;20580;-78
2022/11/25 10:56:52;;;;;;;9.60;2.20;;;;;;;10.54;73.67;96425.84;10396666;28;20216;-79
2022/11/25 11:02:14;;;;;;;4.40;1.60;;;;;;;10.61;70.76;96395.41;10415141;28;20224;-77
2022/11/25 11:13:40;;;;;;;7.20;1.73;;;;;;;9.80;73.49;96447.44;10345128;28;20200;-77
2022/11/25 11:18:41;;;;;;;6.93;1.80;;;;;;;9.41;75.73;96481.88;10413998;28;20228;-78
2022/11/25 11:23:50;;;;;;;6.60;1.70;;;;;;;10.66;70.68;96413.25;10412177;28;20212;-77
2022/11/25 11:28:58;;;;;;;4.10;1.35;;;;;;;10.11;71.98;96425.91;10413719;28;20204;-78
2022/11/25 11:34:01;;;;;;;3.23;1.17;;;;;;;9.27;74.77;96446.69;10413066;28;20311;-77
2022/11/25 11:39:29;;;;;;;5.07;1.70;;;;;;;9.37;76.33;96479.72;10411882;28;20588;-78
2022/11/25 11:44:56;;;;;;;6.57;1.67;;;;;;;9.64;75.68;96449.97;10411905;28;20728;-78
2022/11/25 11:50:03;;;;;;;3.47;1.30;;;;;;;8.57;77.83;96480.63;10412743;28;20188;-78
2022/11/25 11:55:40;;;;;;;7.90;1.80;;;;;;;8.29;79.46;96487.69;10411133;28;20642;-78
2022/11/25 12:01:15;;;;;;;27.20;10.37;;;;;;;8.35;81.51;96502.75;10412276;28;20188;-77
2022/11/25 12:06:17;;;;;;;8.53;2.90;;;;;;;9.17;79.42;96493.00;10411480;28;20255;-79
2022/11/25 12:11:24;;;;;;;52.07;20.27;;;;;;;9.48;76.09;96444.66;10407325;28;20188;-78
2022/11/25 12:16:34;;;;;;;11.13;3.70;;;;;;;10.02;74.52;96439.16;10411617;28;20675;-78
2022/11/25 12:21:41;;;;;;;5.03;1.60;;;;;;;10.12;73.44;96417.09;10410862;28;20192;-77
2022/11/25 12:33:25;;;;;;;6.13;1.53;;;;;;;9.52;75.71;96448.59;10410810;28;20236;-79
2022/11/25 12:38:45;;;;;;;6.63;1.50;;;;;;;10.02;76.14;96444.38;10410029;28;20220;-78
2022/11/25 12:43:53;;;;;;;6.53;2.50;;;;;;;10.06;74.32;96425.59;10410517;28;20225;-78
2022/11/25 12:49:29;;;;;;;6.53;1.73;;;;;;;10.13;75.29;96441.47;10409116;28;20228;-79
2022/11/25 12:55:00;;;;;;;7.80;1.60;;;;;;;9.91;75.15;96445.50;10394476;28;20197;-79
2022/11/25 13:00:15;;;;;;;4.30;1.30;;;;;;;8.58;79.67;96497.94;10409960;28;20196;-79
2022/11/25 13:05:52;;;;;;;7.80;1.50;;;;;;;8.51;82.21;96523.81;10409153;28;20254;-79
2022/11/25 13:11:15;;;;;;;3.93;1.47;;;;;;;9.13;80.99;96520.44;10409077;28;20232;-79
2022/11/25 13:16:16;;;;;;;4.40;1.77;;;;;;;8.69;79.90;96497.69;10391353;28;20564;-78
2022/11/25 13:21:18;;;;;;;6.07;1.70;;;;;;;8.23;84.09;96535.25;10390126;28;20189;-79
2022/11/25 13:26:27;;;;;;;3.13;1.90;;;;;;;7.76;85.63;96554.38;10391084;28;20587;-79
2022/11/25 13:31:33;;;;;;;4.77;1.90;;;;;;;7.90;85.99;96551.31;10402440;28;20294;-78
2022/11/25 13:36:45;;;;;;;4.23;1.80;;;;;;;8.08;87.69;96558.38;10408254;28;20607;-79
2022/11/25 13:41:48;;;;;;;7.13;3.63;;;;;;;8.18;86.61;96543.50;10408164;28;20642;-79
2022/11/25 13:46:51;;;;;;;9.80;2.43;;;;;;;8.57;84.71;96538.91;10407424;28;20200;-78
2022/11/25 13:51:58;;;;;;;3.87;1.70;;;;;;;8.56;84.30;96528.59;10405943;28;20224;-79
2022/11/25 13:57:23;;;;;;;4.77;2.00;;;;;;;8.08;86.81;96548.75;10406883;28;20199;-77
2022/11/25 14:02:26;;;;;;;2.10;1.70;;;;;;;7.56;90.18;96579.69;10390760;28;20282;-78
2022/11/25 14:07:32;;;;;;;6.43;2.60;;;;;;;7.25;92.77;96587.72;10414676;28;20733;-78
2022/11/25 14:12:53;;;;;;;5.93;2.17;;;;;;;6.90;97.08;96602.09;10416228;28;20196;-77
2022/11/25 14:18:13;;;;;;;4.07;2.40;;;;;;;6.44;100.00;96606.97;10398789;28;20553;-78
2022/11/25 14:23:35;;;;;;;7.63;4.97;;;;;;;6.53;100.00;96619.16;10408947;28;20224;-78
2022/11/25 14:28:52;;;;;;;7.70;5.60;;;;;;;6.00;100.00;96630.66;10415514;28;20615;-77
2022/11/25 14:33:56;;;;;;;12.27;6.70;;;;;;;6.04;100.00;96645.00;10412840;28;20673;-78
2022/11/25 14:39:01;;;;;;;11.37;4.60;;;;;;;5.89;100.00;96646.28;10413611;28;20700;-78
2022/11/25 14:44:54;;;;;;;12.00;4.83;;;;;;;5.82;100.00;96652.94;10412891;28;20250;-78
2022/11/25 14:49:56;;;;;;;10.57;5.10;;;;;;;5.44;100.00;96660.38;10419271;28;20668;-79
2022/11/25 14:54:58;;;;;;;15.47;7.50;;;;;;;5.69;100.00;96666.13;10398267;28;20662;-79
2022/11/25 15:00:14;;;;;;;10.03;3.60;;;;;;;5.64;100.00;96668.31;10413899;28;20254;-76
2022/11/25 15:05:20;;;;;;;7.43;4.07;;;;;;;5.58;100.00;96661.00;10417609;28;20694;-76
2022/11/25 15:10:38;;;;;;;5.30;3.37;;;;;;;5.51;100.00;96663.28;10415562;28;20197;-76
2022/11/25 15:15:38;;;;;;;10.67;3.23;;;;;;;5.49;100.00;96657.38;10413344;28;20184;-76
2022/11/25 15:20:39;;;;;;;5.77;4.07;;;;;;;5.42;100.00;96666.63;10413599;28;20192;-76
2022/11/25 15:25:48;;;;;;;10.70;5.87;;;;;;;5.33;100.00;96668.22;10413611;28;20246;-76
2022/11/25 15:31:00;;;;;;;7.10;4.33;;;;;;;5.32;100.00;96674.34;10411815;28;20236;-77
2022/11/25 15:36:00;;;;;;;9.07;4.77;;;;;;;5.19;100.00;96690.09;10413507;28;20661;-76
2022/11/25 15:41:01;;;;;;;10.17;5.47;;;;;;;5.12;100.00;96686.34;10412939;28;20191;-76
2022/11/25 15:46:03;;;;;;;13.10;5.93;;;;;;;5.11;100.00;96688.13;10411379;28;20228;-76
2022/11/25 15:51:12;;;;;;;40.83;18.37;;;;;;;5.13;100.00;96690.59;10402633;28;20193;-76
2022/11/25 15:56:23;;;;;;;7.70;4.60;;;;;;;5.13;100.00;96704.41;10402480;28;20700;-83
2022/11/25 16:01:27;;;;;;;12.37;4.97;;;;;;;5.25;100.00;96712.97;10412329;28;20196;-85
2022/11/25 16:06:35;;;;;;;16.70;9.00;;;;;;;5.30;100.00;96717.81;10407830;28;21050;-87
2022/11/25 16:11:43;;;;;;;12.07;6.30;;;;;;;5.45;100.00;96723.53;10409839;28;20224;-84
2022/11/25 16:16:46;;;;;;;14.10;7.77;;;;;;;5.00;100.00;96722.72;10408442;28;20647;-84
2022/11/25 16:21:58;;;;;;;14.83;6.53;;;;;;;5.22;100.00;96733.19;10392523;28;20193;-83
2022/11/25 16:27:05;;;;;;;7.43;4.87;;;;;;;5.12;100.00;96730.50;10436619;28;20274;-81
2022/11/25 16:32:34;;;;;;;11.33;6.03;;;;;;;4.93;100.00;96731.97;10408464;28;20600;-82
2022/11/25 16:37:35;;;;;;;9.67;5.33;;;;;;;4.75;100.00;96739.41;10388991;28;20228;-82
2022/11/25 16:42:36;;;;;;;13.00;7.00;;;;;;;4.63;100.00;96750.75;10409914;28;20945;-81
2022/11/25 16:47:37;;;;;;;29.50;16.80;;;;;;;4.61;100.00;96750.84;10415370;28;20189;-81
2022/11/25 16:52:37;;;;;;;12.40;7.07;;;;;;;4.69;100.00;96758.06;10402795;28;20306;-75
2022/11/25 16:57:39;;;;;;;10.77;6.63;;;;;;;4.62;100.00;96767.25;10387071;28;20199;-76
2022/11/25 17:02:39;;;;;;;14.23;8.00;;;;;;;4.58;100.00;96771.00;10401228;28;20328;-81
2022/11/25 17:07:40;;;;;;;13.37;7.33;;;;;;;4.47;100.00;96767.50;10447439;28;20287;-80
2022/11/25 17:12:41;;;;;;;11.10;7.07;;;;;;;4.40;100.00;96768.06;10438959;28;20641;-80
2022/11/25 17:17:43;;;;;;;12.17;6.53;;;;;;;4.36;100.00;96772.66;10400469;28;20240;-81
2022/11/25 17:22:43;;;;;;;13.07;6.53;;;;;;;4.35;100.00;96777.94;10409315;28;20577;-81
2022/11/25 17:27:46;;;;;;;10.50;6.13;;;;;;;4.33;100.00;96783.25;10420232;28;20200;-83
2022/11/25 17:32:57;;;;;;;18.23;9.17;;;;;;;4.23;100.00;96790.09;10410652;28;20376;-81
2022/11/25 17:37:59;;;;;;;13.23;6.67;;;;;;;4.43;100.00;96793.78;10394056;28;20692;-75
2022/11/25 17:42:59;;;;;;;15.87;8.13;;;;;;;4.34;100.00;96794.47;10405109;28;20279;-76
2022/11/25 17:48:00;;;;;;;13.27;7.43;;;;;;;4.24;100.00;96800.34;10406088;28;20540;-76
2022/11/25 17:53:00;;;;;;;22.93;12.67;;;;;;;4.32;100.00;96802.38;10407714;28;20184;-76
2022/11/25 17:58:01;;;;;;;14.67;8.53;;;;;;;4.40;100.00;96809.56;10408089;28;20676;-76
2022/11/25 18:03:01;;;;;;;15.10;8.53;;;;;;;4.42;100.00;96812.88;10406425;28;20657;-75
2022/11/25 18:08:01;;;;;;;14.40;7.90;;;;;;;4.37;100.00;96815.00;10407554;28;20291;-75
2022/11/25 18:13:04;;;;;;;15.90;9.40;;;;;;;4.37;100.00;96818.41;10406303;28;20188;-75
2022/11/25 18:18:08;;;;;;;16.03;8.93;;;;;;;4.38;100.00;96822.66;10371018;28;20205;-76
2022/11/25 18:23:08;;;;;;;15.13;7.90;;;;;;;4.50;100.00;96826.06;10380322;28;20280;-76
2022/11/25 18:28:15;;;;;;;16.33;7.33;;;;;;;4.26;100.00;96844.31;10407552;28;20193;-76
2022/11/25 18:33:17;;;;;;;17.27;7.80;;;;;;;4.29;100.00;96844.09;10384753;28;20224;-76
2022/11/25 18:38:20;;;;;;;13.63;8.17;;;;;;;4.38;100.00;96856.38;10375349;28;20240;-76
2022/11/25 18:43:38;;;;;;;;;;;;;;;;;;;;;
2022/11/25 18:49:09;;;;;;;15.23;7.17;;;;;;;4.75;100.00;96857.97;10382801;28;20208;-76
2022/11/25 18:54:14;;;;;;;11.67;5.40;;;;;;;4.91;100.00;96866.22;10392108;28;20188;-76
2022/11/25 18:59:16;;;;;;;7.87;5.33;;;;;;;5.09;100.00;96860.56;10413979;28;20184;-77
2022/11/25 19:04:16;;;;;;;23.80;8.60;;;;;;;5.05;100.00;96867.75;10426765;28;20232;-76
2022/11/25 19:09:17;;;;;;;9.97;6.40;;;;;;;5.15;100.00;96873.91;10415840;28;20219;-76
2022/11/25 19:14:29;;;;;;;18.37;7.23;;;;;;;5.14;100.00;96876.63;10414510;28;20185;-77
2022/11/25 19:19:29;;;;;;;9.17;5.40;;;;;;;5.03;100.00;96890.44;10427119;28;20206;-76
2022/11/25 19:24:30;;;;;;;12.93;6.13;;;;;;;5.09;100.00;96904.72;10440109;28;20211;-76
2022/11/25 19:29:33;;;;;;;12.93;7.87;;;;;;;4.93;100.00;96905.88;10456105;28;20183;-77
2022/11/25 19:34:43;;;;;;;11.53;8.20;;;;;;;4.83;100.00;96913.53;10437406;28;20202;-77
2022/11/25 19:39:43;;;;;;;12.30;5.77;;;;;;;4.85;100.00;96921.19;10437345;28;20223;-76
2022/11/25 19:44:44;;;;;;;9.37;5.43;;;;;;;4.81;100.00;96936.19;10454851;28;20692;-76
2022/11/25 19:49:45;;;;;;;11.53;6.13;;;;;;;4.75;100.00;96933.22;10454967;28;20223;-76
2022/11/25 19:54:46;;;;;;;16.43;6.30;;;;;;;4.81;100.00;96948.34;10419917;28;20271;-76
2022/11/25 19:59:46;;;;;;;11.97;6.80;;;;;;;4.79;100.00;96958.00;10413495;28;20587;-76
2022/11/25 20:04:50;;;;;;;11.97;6.40;;;;;;;4.87;100.00;96958.28;10412023;28;20660;-76
2022/11/25 20:10:15;;;;;;;11.60;7.73;;;;;;;4.78;100.00;96962.38;10394624;28;20538;-76
2022/11/25 20:15:17;;;;;;;13.87;9.17;;;;;;;4.77;100.00;96972.88;10395450;28;20311;-76
2022/11/25 20:20:21;;;;;;;12.43;7.63;;;;;;;4.80;100.00;96988.22;10412092;28;20280;-76
2022/11/25 20:25:22;;;;;;;14.80;8.90;;;;;;;4.76;100.00;96989.38;10412227;28;20228;-76
2022/11/25 20:30:25;;;;;;;11.63;9.33;;;;;;;4.82;100.00;96991.50;10385988;28;20299;-76
2022/11/25 20:35:25;;;;;;;14.67;10.27;;;;;;;4.76;100.00;96997.16;10411651;28;20548;-76
2022/11/25 20:40:34;;;;;;;31.00;17.00;;;;;;;4.78;100.00;97010.88;10411728;28;20212;-75
2022/11/25 20:45:34;;;;;;;29.97;16.17;;;;;;;4.81;100.00;97010.63;10411186;28;20226;-76
2022/11/25 20:50:34;;;;;;;25.83;13.07;;;;;;;4.89;100.00;97023.06;10411018;28;20196;-75
2022/11/25 20:55:35;;;;;;;24.23;17.33;;;;;;;4.81;100.00;97037.41;10409604;28;20239;-76
2022/11/25 21:00:35;;;;;;;22.10;14.40;;;;;;;4.90;100.00;97040.25;10400804;28;20196;-75
2022/11/25 21:05:36;;;;;;;20.43;12.90;;;;;;;4.93;100.00;97043.47;10451397;28;20696;-75
2022/11/25 21:10:36;;;;;;;27.53;15.90;;;;;;;4.91;100.00;97052.31;10451251;28;20198;-76
2022/11/25 21:15:36;;;;;;;28.57;16.87;;;;;;;4.85;100.00;97050.16;10450985;28;20253;-75
2022/11/25 21:20:38;;;;;;;20.43;15.20;;;;;;;4.85;100.00;97063.97;10452009;28;20195;-75
2022/11/25 21:25:38;;;;;;;23.47;14.50;;;;;;;4.88;100.00;97066.34;10433070;28;20293;-76
2022/11/25 21:30:38;;;;;;;26.70;15.97;;;;;;;4.86;100.00;97064.81;10451375;28;20239;-75
2022/11/25 21:40:57;;;;;;;27.30;14.47;;;;;;;4.92;100.00;97075.56;10244010;28;20227;-62
2022/11/25 21:46:00;;;;;;;23.00;14.63;;;;;;;4.89;100.00;97088.75;10245826;29;20230;-59
2022/11/25 21:51:00;;;;;;;26.00;16.30;;;;;;;4.87;100.00;97084.63;10244837;28;20215;-63
2022/11/25 21:56:01;;;;;;;25.43;15.37;;;;;;;4.95;100.00;97085.72;10245934;29;20214;-60
2022/11/25 22:01:01;;;;;;;28.97;15.63;;;;;;;4.98;100.00;97102.84;10245155;28;20242;-61
2022/11/25 22:06:01;;;;;;;25.80;14.77;;;;;;;5.03;100.00;97107.72;10244520;29;20231;-60
2022/11/25 22:11:02;;;;;;;25.63;16.40;;;;;;;4.93;100.00;97097.16;10244754;28;20698;-62
2022/11/25 22:16:03;;;;;;;24.03;16.23;;;;;;;4.97;100.00;97104.59;10244694;29;20674;-61
2022/11/25 22:21:04;;;;;;;25.53;15.53;;;;;;;4.96;100.00;97104.72;10245130;28;20215;-61
2022/11/25 22:26:05;;;;;;;18.57;13.03;;;;;;;4.95;100.00;97114.28;10245537;28;20226;-62
2022/11/25 22:31:07;;;;;;;16.47;11.73;;;;;;;5.00;100.00;97112.16;10235375;29;20219;-64
2022/11/25 22:36:21;;;;;;;17.47;11.77;;;;;;;5.05;100.00;97116.19;10252753;29;20184;-64
2022/11/25 22:41:21;;;;;;;20.77;11.37;;;;;;;4.97;100.00;97124.56;10234936;29;20203;-63
2022/11/25 22:46:22;;;;;;;14.93;10.83;;;;;;;5.05;100.00;97131.78;10252322;29;20223;-63
2022/11/25 22:51:25;;;;;;;16.80;10.57;;;;;;;5.02;100.00;97137.19;10251550;28;20215;-63
2022/11/25 22:56:26;;;;;;;16.63;11.53;;;;;;;5.08;100.00;97147.97;10252215;29;20688;-64
2022/11/25 23:01:27;;;;;;;16.73;11.00;;;;;;;4.93;100.00;97147.31;10251274;28;20223;-64
2022/11/25 23:06:27;;;;;;;16.07;10.97;;;;;;;4.94;100.00;97164.53;10251812;29;20262;-64
2022/11/25 23:11:28;;;;;;;17.40;10.47;;;;;;;4.98;100.00;97159.97;10250673;28;20701;-64
2022/11/25 23:16:28;;;;;;;14.83;11.17;;;;;;;4.86;100.00;97168.63;10250868;29;20199;-64
2022/11/25 23:21:29;;;;;;;13.13;10.93;;;;;;;4.91;100.00;97179.50;10251159;28;20289;-64
2022/11/25 23:26:30;;;;;;;17.20;11.53;;;;;;;4.88;100.00;97183.16;10250589;29;20230;-64
2022/11/25 23:31:33;;;;;;;16.93;11.20;;;;;;;4.98;100.00;97183.34;10250737;28;20215;-63
2022/11/25 23:36:41;;;;;;;14.20;10.53;;;;;;;5.04;100.00;97184.66;10250009;28;21007;-65
2022/11/25 23:41:41;;;;;;;21.57;13.30;;;;;;;4.92;100.00;97179.41;10232947;29;20239;-64
2022/11/25 23:46:42;;;;;;;24.00;15.47;;;;;;;4.89;100.00;97190.00;10250375;29;20227;-64
2022/11/25 23:51:43;;;;;;;27.77;14.90;;;;;;;4.91;100.00;97201.09;10249519;28;20765;-65
2022/11/25 23:56:43;;;;;;;32.37;16.10;;;;;;;4.95;100.00;97205.16;10250120;29;20618;-64
